Eagle Vermont — S6HU9 — position and weather

sailwx.info

Track history (hours):
 
Tides and Currents Weather Stations Pressure Air Temp Water Temp Dewpoint Dewpoint Depression Visibility Wind Speed Wind Dir Waves Ship Positions

Eagle Vermont

Last reported at 2018-May-20 19:27 UTC. Time now 2018-May-24 07:56 UTC.
Position N 24°22' E 064°54'.

Length 333 m; draft 11 m.

Type: Tanker. MMSI: 564745000.

Date/timePositionNaut miles runAvg speedWind from/ knotsBaromVisibWave heightAir tempDewpointWater temp
2018-May-20 19:27N 24°22' E 064°54'18111.3
2018-May-20 03:24N 21°60' E 066°56'2111.0
2018-May-20 01:31N 21°42' E 067°06'411.0
2018-May-20 01:10N 21°38' E 067°09'1211.0
2018-May-20 00:05N 21°28' E 067°15'111.1
2018-May-20 00:00N 21°27' E 067°16'2111.3
2018-May-19 22:10N 21°09' E 067°26'311.3
2018-May-19 21:54N 21°06' E 067°28'511.3
2018-May-19 21:27N 21°02' E 067°31'1411.2
2018-May-19 20:14N 20°50' E 067°38'211.1
2018-May-19 20:00N 20°48' E 067°40'611.1
2018-May-19 19:28N 20°43' E 067°42'511.0
2018-May-19 18:59N 20°38' E 067°45'5 5.4
2018-May-19 18:07N 20°37' E 067°50'211.8
2018-May-19 17:59N 20°39' E 067°50'14310.3
2018-May-19 04:11N 22°35' E 069°19'314.7
2018-May-19 03:58N 22°36' E 069°22'714.5
2018-May-19 03:30N 22°38' E 069°29'714.3
2018-May-19 03:00N 22°37' E 069°37'812.8
2018-May-19 02:23N 22°35' E 069°45'1 3.1
2018-May-19 02:00N 22°34' E 069°46'8 0.2
2018-May-17 03:34N 22°39' E 069°54'0 0.0
2018-May-17 03:28N 22°39' E 069°54'0 0.0
2018-May-17 02:58N 22°39' E 069°54'0 0.0
2018-May-17 01:52N 22°39' E 069°54'0 0.0
2018-May-17 00:13N 22°39' E 069°54'0 0.4
2018-May-16 23:59N 22°39' E 069°54'0 0.6
2018-May-16 23:28N 22°39' E 069°54'6 4.2
2018-May-16 22:08N 22°38' E 069°48'1 9.5
2018-May-16 21:59N 22°38' E 069°47'5 9.7
2018-May-16 21:30N 22°36' E 069°42'5 9.0
2018-May-16 20:55N 22°37' E 069°36'711.4
2018-May-16 20:16N 22°38' E 069°28'412.2
2018-May-16 19:55N 22°36' E 069°24'512.1
2018-May-16 19:29N 22°35' E 069°18'612.3
2018-May-16 19:00N 22°37' E 069°12'711.7
2018-May-16 18:25N 22°38' E 069°05'511.7
2018-May-16 17:59N 22°38' E 068°59'711.2
2018-May-16 17:20N 22°32' E 068°55'411.6
2018-May-16 17:00N 22°29' E 068°53'711.2
2018-May-16 16:25N 22°23' E 068°50'510.3
2018-May-16 15:59N 22°19' E 068°46'510.4
2018-May-16 15:29N 22°17' E 068°42'710.0
2018-May-16 14:49N 22°13' E 068°36'81 8.5
2018-May-16 05:22N 22°45' E 067°16'611.3
2018-May-16 04:52N 22°49' E 067°11'512.6
2018-May-16 04:29N 22°52' E 067°07'1311.4
2018-May-16 03:21N 22°60' E 066°56'410.8
2018-May-16 03:01N 23°02' E 066°53'610.7
2018-May-16 02:28N 23°05' E 066°48'810.7
2018-May-16 01:45N 23°10' E 066°41'210.6
2018-May-16 01:31N 23°12' E 066°39'610.6
2018-May-16 00:57N 23°15' E 066°34'510.5
2018-May-16 00:31N 23°18' E 066°30'610.7
2018-May-15 23:59N 23°22' E 066°25'510.7
2018-May-15 23:30N 23°25' E 066°21'710.7
2018-May-15 22:54N 23°29' E 066°15'1910.6
2018-May-15 21:07N 23°40' E 065°59'210.5
2018-May-15 20:58N 23°41' E 065°57'510.5
2018-May-15 20:29N 23°44' E 065°53'510.5
2018-May-15 19:59N 23°48' E 065°49'510.8
2018-May-15 19:29N 23°51' E 065°44'611.5
2018-May-15 19:00N 23°54' E 065°39'16610.8
2018-May-15 03:40N 24°22' E 062°40'411.7
2018-May-15 03:19N 24°22' E 062°35'411.6
2018-May-15 03:00N 24°22' E 062°31'7711.5
2018-May-14 20:21N 24°22' E 061°07'  
Track history (hours):
 
Tides and Currents Weather Stations Pressure Air Temp Water Temp Dewpoint Dewpoint Depression Visibility Wind Speed Wind Dir Waves Ship Positions

Eagle Vermont

Last reported at 2018-May-20 19:27 UTC. Time now 2018-May-24 07:56 UTC.
Position N 24°22' E 064°54'.

Length 333 m; draft 11 m.

Type: Tanker. MMSI: 564745000.

Date/timePositionNaut miles runAvg speedWind from/ knotsBaromVisibWave heightAir tempDewpointWater temp
2018-May-20 19:27N 24°22' E 064°54'18111.3
2018-May-20 03:24N 21°60' E 066°56'2111.0
2018-May-20 01:31N 21°42' E 067°06'411.0
2018-May-20 01:10N 21°38' E 067°09'1211.0
2018-May-20 00:05N 21°28' E 067°15'111.1
2018-May-20 00:00N 21°27' E 067°16'2111.3
2018-May-19 22:10N 21°09' E 067°26'311.3
2018-May-19 21:54N 21°06' E 067°28'511.3
2018-May-19 21:27N 21°02' E 067°31'1411.2
2018-May-19 20:14N 20°50' E 067°38'211.1
2018-May-19 20:00N 20°48' E 067°40'611.1
2018-May-19 19:28N 20°43' E 067°42'511.0
2018-May-19 18:59N 20°38' E 067°45'5 5.4
2018-May-19 18:07N 20°37' E 067°50'211.8
2018-May-19 17:59N 20°39' E 067°50'14310.3
2018-May-19 04:11N 22°35' E 069°19'314.7
2018-May-19 03:58N 22°36' E 069°22'714.5
2018-May-19 03:30N 22°38' E 069°29'714.3
2018-May-19 03:00N 22°37' E 069°37'812.8
2018-May-19 02:23N 22°35' E 069°45'1 3.1
2018-May-19 02:00N 22°34' E 069°46'8 0.2
2018-May-17 03:34N 22°39' E 069°54'0 0.0
2018-May-17 03:28N 22°39' E 069°54'0 0.0
2018-May-17 02:58N 22°39' E 069°54'0 0.0
2018-May-17 01:52N 22°39' E 069°54'0 0.0
2018-May-17 00:13N 22°39' E 069°54'0 0.4
2018-May-16 23:59N 22°39' E 069°54'0 0.6
2018-May-16 23:28N 22°39' E 069°54'6 4.2
2018-May-16 22:08N 22°38' E 069°48'1 9.5
2018-May-16 21:59N 22°38' E 069°47'5 9.7
2018-May-16 21:30N 22°36' E 069°42'5 9.0
2018-May-16 20:55N 22°37' E 069°36'711.4
2018-May-16 20:16N 22°38' E 069°28'412.2
2018-May-16 19:55N 22°36' E 069°24'512.1
2018-May-16 19:29N 22°35' E 069°18'612.3
2018-May-16 19:00N 22°37' E 069°12'711.7
2018-May-16 18:25N 22°38' E 069°05'511.7
2018-May-16 17:59N 22°38' E 068°59'711.2
2018-May-16 17:20N 22°32' E 068°55'411.6
2018-May-16 17:00N 22°29' E 068°53'711.2
2018-May-16 16:25N 22°23' E 068°50'510.3
2018-May-16 15:59N 22°19' E 068°46'510.4
2018-May-16 15:29N 22°17' E 068°42'710.0
2018-May-16 14:49N 22°13' E 068°36'81 8.5
2018-May-16 05:22N 22°45' E 067°16'611.3
2018-May-16 04:52N 22°49' E 067°11'512.6
2018-May-16 04:29N 22°52' E 067°07'1311.4
2018-May-16 03:21N 22°60' E 066°56'410.8
2018-May-16 03:01N 23°02' E 066°53'610.7
2018-May-16 02:28N 23°05' E 066°48'810.7
2018-May-16 01:45N 23°10' E 066°41'210.6
2018-May-16 01:31N 23°12' E 066°39'610.6
2018-May-16 00:57N 23°15' E 066°34'510.5
2018-May-16 00:31N 23°18' E 066°30'610.7
2018-May-15 23:59N 23°22' E 066°25'510.7
2018-May-15 23:30N 23°25' E 066°21'710.7
2018-May-15 22:54N 23°29' E 066°15'1910.6
2018-May-15 21:07N 23°40' E 065°59'210.5
2018-May-15 20:58N 23°41' E 065°57'510.5
2018-May-15 20:29N 23°44' E 065°53'510.5
2018-May-15 19:59N 23°48' E 065°49'510.8
2018-May-15 19:29N 23°51' E 065°44'611.5
2018-May-15 19:00N 23°54' E 065°39'16610.8
2018-May-15 03:40N 24°22' E 062°40'411.7
2018-May-15 03:19N 24°22' E 062°35'411.6
2018-May-15 03:00N 24°22' E 062°31'7711.5
2018-May-14 20:21N 24°22' E 061°07'  

Dump ship's entire track history